Time;durP1;ratioP1;P1;durP2;ratioP2;P2;SDS_P1;SDS_P2;PMS_P1;PMS_P2;Temp;Humidity;BMP_temperature;BMP_pressure;BME280_temperature;BME280_humidity;BME280_pressure;Samples;Min_cycle;Max_cycle;Signal;HPM_P1;HPM_P2
2024/02/12 00:01:45;;;;;;;3.13;1.75;;;20.80;43.40;;;;;;5043676;28;20072;-61
2024/02/12 00:04:12;;;;;;;3.25;2.00;;;20.90;43.40;;;;;;5043615;28;20112;-60
2024/02/12 00:06:38;;;;;;;2.88;2.10;;;20.80;43.40;;;;;;5042459;28;20040;-59
2024/02/12 00:09:04;;;;;;;2.92;1.75;;;20.80;43.30;;;;;;5041390;28;20053;-60
2024/02/12 00:11:30;;;;;;;2.22;1.50;;;20.80;43.30;;;;;;5044434;28;20061;-59
2024/02/12 00:13:56;;;;;;;3.13;1.83;;;20.80;43.30;;;;;;5039285;28;20037;-60
2024/02/12 00:16:23;;;;;;;3.97;1.92;;;20.80;43.30;;;;;;5039212;28;20041;-59
2024/02/12 00:18:51;;;;;;;2.95;2.00;;;20.80;43.30;;;;;;5045312;28;20419;-60
2024/02/12 00:21:18;;;;;;;3.20;2.10;;;20.80;43.20;;;;;;5043147;28;20036;-60
2024/02/12 00:23:46;;;;;;;2.33;1.50;;;20.80;43.20;;;;;;5041920;28;20020;-60
2024/02/12 00:26:12;;;;;;;2.50;1.80;;;20.80;43.20;;;;;;5043269;28;20079;-60
2024/02/12 00:28:38;;;;;;;2.90;1.70;;;20.80;43.20;;;;;;5043097;28;20033;-59
2024/02/12 00:31:04;;;;;;;3.50;2.08;;;20.80;43.20;;;;;;5043549;28;20083;-58
2024/02/12 00:33:30;;;;;;;2.65;1.80;;;20.80;43.20;;;;;;5041044;28;20044;-59
2024/02/12 00:35:58;;;;;;;1.92;1.67;;;20.80;43.20;;;;;;5043210;28;20030;-59
2024/02/12 00:38:24;;;;;;;3.15;1.92;;;20.70;43.10;;;;;;5046701;28;20091;-59
2024/02/12 00:40:49;;;;;;;2.40;1.70;;;20.70;43.10;;;;;;5042433;28;20045;-59
2024/02/12 00:43:15;;;;;;;2.55;1.75;;;20.70;43.10;;;;;;5042268;28;20041;-59
2024/02/12 00:45:42;;;;;;;4.03;2.00;;;20.80;43.20;;;;;;5044025;28;20083;-60
2024/02/12 00:48:08;;;;;;;1.98;1.70;;;20.70;43.10;;;;;;5047005;28;20044;-60
2024/02/12 00:50:35;;;;;;;3.05;2.03;;;20.70;43.10;;;;;;5044959;28;20033;-60
2024/02/12 00:53:04;;;;;;;2.65;2.03;;;20.70;43.20;;;;;;5045483;28;20036;-59
2024/02/12 00:55:29;;;;;;;2.53;2.00;;;20.70;43.10;;;;;;5046882;28;20036;-60
2024/02/12 00:57:57;;;;;;;2.75;1.90;;;20.70;43.10;;;;;;5042480;28;20108;-60
2024/02/12 01:00:25;;;;;;;3.50;2.08;;;20.70;43.10;;;;;;5047452;28;20041;-59
2024/02/12 01:02:50;;;;;;;2.88;1.80;;;20.70;43.10;;;;;;5045350;28;20034;-60
2024/02/12 01:05:17;;;;;;;3.20;2.10;;;20.70;43.20;;;;;;5047720;28;20033;-59
2024/02/12 01:07:43;;;;;;;2.35;1.60;;;20.70;43.10;;;;;;5049243;28;20029;-61
2024/02/12 01:10:10;;;;;;;3.08;2.20;;;20.70;43.10;;;;;;5046422;28;20108;-61
2024/02/12 01:12:36;;;;;;;4.95;1.88;;;20.70;43.20;;;;;;5047364;28;20086;-60
2024/02/12 01:15:03;;;;;;;2.78;2.15;;;20.70;43.20;;;;;;5047009;28;20029;-61
2024/02/12 01:17:29;;;;;;;3.42;1.83;;;20.70;43.10;;;;;;5028975;28;20431;-59
2024/02/12 01:19:55;;;;;;;4.50;2.35;;;20.70;43.20;;;;;;5047116;28;20353;-60
2024/02/12 01:22:21;;;;;;;3.53;2.10;;;20.70;43.20;;;;;;5046969;28;20033;-60
2024/02/12 01:24:49;;;;;;;3.40;2.38;;;20.70;43.20;;;;;;5042719;28;20059;-59
2024/02/12 01:27:15;;;;;;;3.33;2.08;;;20.60;43.10;;;;;;5047816;28;20033;-58
2024/02/12 01:29:40;;;;;;;2.78;2.00;;;20.60;43.10;;;;;;5043525;28;20032;-59
2024/02/12 01:32:09;;;;;;;3.97;2.25;;;20.60;43.10;;;;;;5043904;28;20030;-59
2024/02/12 01:34:36;;;;;;;3.97;2.03;;;20.60;43.10;;;;;;5045250;28;20035;-59
2024/02/12 01:37:02;;;;;;;2.42;2.00;;;20.60;43.10;;;;;;5046034;28;20028;-60
2024/02/12 01:39:28;;;;;;;2.88;2.00;;;20.60;43.10;;;;;;5046166;28;20061;-60
2024/02/12 01:41:53;;;;;;;3.88;2.00;;;20.60;43.10;;;;;;5049950;28;20029;-60
2024/02/12 01:44:20;;;;;;;3.13;2.15;;;20.60;43.10;;;;;;5045088;28;20364;-60
2024/02/12 01:46:49;;;;;;;5.93;2.50;;;20.60;43.10;;;;;;5050287;28;20029;-59
2024/02/12 01:49:19;;;;;;;3.00;2.25;;;20.60;43.20;;;;;;5043356;28;20057;-59
2024/02/12 01:51:48;;;;;;;4.53;2.22;;;20.60;43.20;;;;;;5043895;28;20432;-59
2024/02/12 01:54:17;;;;;;;3.08;2.08;;;20.60;43.20;;;;;;5045456;28;20036;-59
2024/02/12 01:56:47;;;;;;;3.92;2.30;;;20.60;43.20;;;;;;5044932;28;20021;-58
2024/02/12 01:59:18;;;;;;;3.13;2.15;;;20.60;43.20;;;;;;5046865;28;20045;-60
2024/02/12 02:01:47;;;;;;;3.67;1.80;;;20.60;43.20;;;;;;5046814;28;20060;-58
2024/02/12 02:04:13;;;;;;;3.40;2.20;;;20.60;43.20;;;;;;5029589;28;20021;-60
2024/02/12 02:06:39;;;;;;;4.28;2.20;;;20.60;43.20;;;;;;5043779;28;20460;-59
2024/02/12 02:09:07;;;;;;;3.28;2.03;;;20.60;43.20;;;;;;5047781;28;20579;-59
2024/02/12 02:11:33;;;;;;;3.65;2.17;;;20.60;43.20;;;;;;5045054;28;20039;-59
2024/02/12 02:13:59;;;;;;;3.72;2.42;;;20.60;43.20;;;;;;5042386;28;20026;-59
2024/02/12 02:16:25;;;;;;;3.10;2.03;;;20.60;43.20;;;;;;5044687;28;20042;-58
2024/02/12 02:18:52;;;;;;;4.60;2.50;;;20.60;43.10;;;;;;5044592;28;20109;-59
2024/02/12 02:21:20;;;;;;;3.33;2.15;;;20.60;43.20;;;;;;5045571;28;20040;-60
2024/02/12 02:23:46;;;;;;;3.13;1.92;;;20.60;43.10;;;;;;5045876;28;20017;-59
2024/02/12 02:26:12;;;;;;;4.45;2.15;;;20.60;43.10;;;;;;5046238;28;20661;-58
2024/02/12 02:28:37;;;;;;;3.08;1.92;;;20.60;43.20;;;;;;5044846;28;20044;-58
2024/02/12 02:31:04;;;;;;;3.20;2.05;;;20.50;43.10;;;;;;5043800;28;20056;-59
2024/02/12 02:33:31;;;;;;;3.88;2.28;;;20.60;43.20;;;;;;5043229;28;20462;-60
2024/02/12 02:35:57;;;;;;;4.03;2.28;;;20.60;43.20;;;;;;5045381;28;20044;-59
2024/02/12 02:38:23;;;;;;;5.03;2.35;;;20.50;43.10;;;;;;5046804;28;20040;-59
2024/02/12 02:40:49;;;;;;;3.95;2.58;;;20.60;43.20;;;;;;5046519;28;20472;-60
2024/02/12 02:43:16;;;;;;;3.15;2.10;;;20.60;43.20;;;;;;5049036;28;20048;-60
2024/02/12 02:45:41;;;;;;;3.72;2.33;;;20.50;43.10;;;;;;5046756;28;20024;-59
2024/02/12 02:48:07;;;;;;;3.40;2.20;;;20.50;43.10;;;;;;5042149;28;20082;-59
2024/02/12 02:50:34;;;;;;;3.10;2.33;;;20.50;43.10;;;;;;5044666;28;20100;-59
2024/02/12 02:53:01;;;;;;;3.72;2.08;;;20.50;43.10;;;;;;5044294;28;20055;-59
2024/02/12 02:55:30;;;;;;;2.92;2.13;;;20.50;43.20;;;;;;5042535;28;20025;-60
2024/02/12 02:58:01;;;;;;;4.25;2.80;;;20.50;43.10;;;;;;5044310;28;20034;-59
2024/02/12 03:00:31;;;;;;;3.63;2.20;;;20.50;43.20;;;;;;5042859;28;20045;-59
2024/02/12 03:02:57;;;;;;;2.92;2.17;;;20.50;43.20;;;;;;5041133;28;20104;-59
2024/02/12 03:05:24;;;;;;;3.50;2.17;;;20.50;43.20;;;;;;5043263;28;20099;-60
2024/02/12 03:07:50;;;;;;;4.05;2.40;;;20.50;43.20;;;;;;5042935;28;20040;-57
2024/02/12 03:10:16;;;;;;;3.85;2.58;;;20.50;43.20;;;;;;5044968;28;20033;-59
2024/02/12 03:12:45;;;;;;;3.75;2.33;;;20.50;43.20;;;;;;5043770;28;20428;-59
2024/02/12 03:15:14;;;;;;;4.72;2.75;;;20.50;43.20;;;;;;5042795;28;20083;-59
2024/02/12 03:17:43;;;;;;;4.18;2.40;;;20.50;43.20;;;;;;5045763;28;20025;-59
2024/02/12 03:20:11;;;;;;;4.15;2.30;;;20.50;43.20;;;;;;5043776;28;20101;-60
2024/02/12 03:22:41;;;;;;;3.58;2.30;;;20.50;43.20;;;;;;5043397;28;20033;-59
2024/02/12 03:25:09;;;;;;;3.80;2.22;;;20.50;43.10;;;;;;5042382;28;20035;-61
2024/02/12 03:27:36;;;;;;;3.70;2.50;;;20.40;43.10;;;;;;5042880;28;20029;-59
2024/02/12 03:30:02;;;;;;;3.40;2.53;;;20.50;43.10;;;;;;5045034;28;20030;-60
2024/02/12 03:32:29;;;;;;;4.43;2.30;;;20.50;43.10;;;;;;5044606;28;20448;-58
2024/02/12 03:34:57;;;;;;;3.97;2.50;;;20.40;43.10;;;;;;5041383;28;20455;-59
2024/02/12 03:37:23;;;;;;;3.35;2.35;;;20.40;43.10;;;;;;5046352;28;20043;-60
2024/02/12 03:39:52;;;;;;;3.53;2.30;;;20.40;43.70;;;;;;5042344;28;20053;-58
2024/02/12 03:42:19;;;;;;;3.15;2.15;;;20.40;43.10;;;;;;5043089;28;20120;-58
2024/02/12 03:44:45;;;;;;;4.53;2.63;;;20.40;43.10;;;;;;5041406;28;20037;-58
2024/02/12 03:47:11;;;;;;;5.00;2.80;;;20.40;43.10;;;;;;5044378;28;20064;-59
2024/02/12 04:00:51;;;;;;;3.90;2.50;;;20.40;43.00;;;;;;5007350;28;20472;-59
2024/02/12 04:03:19;;;;;;;3.97;2.63;;;20.40;43.00;;;;;;5044109;28;20106;-59
2024/02/12 04:05:45;;;;;;;4.15;2.47;;;20.40;43.00;;;;;;5041636;28;20043;-59
2024/02/12 04:08:11;;;;;;;3.70;2.47;;;20.40;43.00;;;;;;5044183;28;20091;-60
2024/02/12 04:10:40;;;;;;;5.25;3.00;;;20.40;43.00;;;;;;5037186;28;20041;-60
2024/02/12 04:13:06;;;;;;;4.22;2.60;;;20.40;43.60;;;;;;5040542;28;20041;-59
2024/02/12 04:15:38;;;;;;;3.08;2.40;;;20.40;42.90;;;;;;5044918;28;20086;-60
2024/02/12 04:18:06;;;;;;;3.72;2.92;;;20.40;42.90;;;;;;5042034;28;20029;-60
2024/02/12 04:20:33;;;;;;;3.05;2.45;;;20.40;42.90;;;;;;5041002;28;20069;-59
2024/02/12 04:23:01;;;;;;;3.90;2.88;;;20.40;42.90;;;;;;5048176;28;20040;-61
2024/02/12 04:25:27;;;;;;;3.35;2.55;;;20.40;42.90;;;;;;5047776;28;20044;-60
2024/02/12 04:27:54;;;;;;;4.45;2.50;;;20.40;42.80;;;;;;5042840;28;20512;-57
2024/02/12 04:30:25;;;;;;;3.30;2.50;;;20.40;42.80;;;;;;5048481;28;20030;-60
2024/02/12 04:32:51;;;;;;;4.05;2.72;;;20.40;42.80;;;;;;5046393;28;20037;-60
2024/02/12 04:35:17;;;;;;;3.13;2.50;;;20.40;42.80;;;;;;5046387;28;20449;-60
2024/02/12 04:37:45;;;;;;;3.60;2.78;;;20.40;42.80;;;;;;5047583;28;20036;-61
2024/02/12 04:40:12;;;;;;;3.95;2.53;;;20.30;42.70;;;;;;5045358;28;20053;-59
2024/02/12 04:42:39;;;;;;;3.38;2.65;;;20.40;42.70;;;;;;5048343;28;20043;-57
2024/02/12 04:45:05;;;;;;;3.67;2.80;;;20.40;42.70;;;;;;5046502;28;20036;-60
2024/02/12 04:47:31;;;;;;;4.18;2.70;;;20.30;42.60;;;;;;5043840;28;20029;-59
2024/02/12 04:49:57;;;;;;;3.90;2.80;;;20.30;42.60;;;;;;5048280;28;20408;-60
2024/02/12 04:52:23;;;;;;;4.03;2.75;;;20.30;42.60;;;;;;5044159;28;20065;-58
2024/02/12 04:54:49;;;;;;;4.05;3.00;;;20.40;42.60;;;;;;5047989;28;20025;-59
2024/02/12 04:57:15;;;;;;;4.32;2.92;;;20.30;42.50;;;;;;5046778;28;20057;-59
2024/02/12 04:59:40;;;;;;;4.05;3.17;;;20.30;42.50;;;;;;5045816;28;20091;-59
2024/02/12 05:02:06;;;;;;;4.22;3.10;;;20.30;42.50;;;;;;5045160;28;20028;-59
2024/02/12 05:04:32;;;;;;;5.43;3.00;;;20.30;42.50;;;;;;5046647;28;20040;-59
2024/02/12 05:06:58;;;;;;;5.70;3.17;;;20.30;43.10;;;;;;5045782;28;20036;-59
2024/02/12 05:09:24;;;;;;;4.38;3.08;;;20.30;42.40;;;;;;5043662;28;20491;-56
2024/02/12 05:11:50;;;;;;;4.13;2.80;;;20.30;42.30;;;;;;5042873;28;20025;-58
2024/02/12 05:14:17;;;;;;;4.75;3.40;;;20.30;42.30;;;;;;5044860;28;20470;-57
2024/02/12 05:16:45;;;;;;;3.15;2.40;;;20.30;42.30;;;;;;5048501;28;20029;-58
2024/02/12 05:24:39;;;;;;;3.78;2.92;;;20.30;42.20;;;;;;5045750;28;20067;-59
2024/02/12 05:27:05;;;;;;;4.13;2.95;;;20.30;42.20;;;;;;5044269;28;20095;-58
2024/02/12 05:29:31;;;;;;;4.28;2.78;;;20.30;42.20;;;;;;5046698;28;20029;-60
2024/02/12 05:31:57;;;;;;;4.45;3.08;;;20.30;42.10;;;;;;5049398;28;20348;-58
2024/02/12 05:34:23;;;;;;;5.03;3.10;;;20.30;42.10;;;;;;5044964;28;20119;-58
2024/02/12 05:36:53;;;;;;;4.93;3.10;;;20.30;42.10;;;;;;5047524;28;20025;-59
2024/02/12 05:39:21;;;;;;;4.60;3.58;;;20.30;42.10;;;;;;5043188;28;20041;-60
2024/02/12 05:41:47;;;;;;;3.65;3.22;;;20.30;42.00;;;;;;5044536;28;20037;-59
2024/02/12 05:44:16;;;;;;;4.85;3.53;;;20.20;42.00;;;;;;5043672;28;20024;-59
2024/02/12 05:46:42;;;;;;;4.95;3.13;;;20.30;42.00;;;;;;5046828;28;20037;-60
2024/02/12 05:49:09;;;;;;;5.68;4.10;;;20.30;42.00;;;;;;5044680;28;20341;-58
2024/02/12 05:51:37;;;;;;;5.55;3.75;;;20.30;41.90;;;;;;5049220;28;20040;-59
2024/02/12 05:54:02;;;;;;;4.75;3.63;;;20.20;41.90;;;;;;5044482;28;20041;-60
2024/02/12 05:56:29;;;;;;;5.55;3.80;;;20.30;41.90;;;;;;5047648;28;20360;-59
2024/02/12 05:58:55;;;;;;;6.53;3.78;;;20.20;41.90;;;;;;5046015;28;20037;-58
2024/02/12 06:01:21;;;;;;;4.90;3.80;;;20.20;41.80;;;;;;5044627;28;20033;-60
2024/02/12 06:03:47;;;;;;;4.93;3.63;;;20.20;41.80;;;;;;5047077;28;20112;-58
2024/02/12 06:06:12;;;;;;;5.78;3.65;;;20.30;41.80;;;;;;5045861;28;20112;-58
2024/02/12 06:08:38;;;;;;;4.85;3.42;;;20.20;41.80;;;;;;5044270;28;20055;-57
2024/02/12 06:11:05;;;;;;;5.00;3.70;;;20.20;42.40;;;;;;5043327;28;20049;-60
2024/02/12 06:13:30;;;;;;;5.75;3.50;;;20.20;41.80;;;;;;5044955;28;20128;-61
2024/02/12 06:15:56;;;;;;;5.72;3.97;;;20.20;41.70;;;;;;5044438;28;20025;-57
2024/02/12 06:18:22;;;;;;;4.35;3.42;;;20.20;41.70;;;;;;5044299;28;20075;-57
2024/02/12 06:20:48;;;;;;;5.05;3.47;;;20.20;41.70;;;;;;5047080;28;20036;-58
2024/02/12 06:23:14;;;;;;;5.05;3.88;;;20.20;41.70;;;;;;5043513;28;20021;-59
2024/02/12 06:25:42;;;;;;;5.13;3.85;;;20.20;41.70;;;;;;5041121;28;20333;-59
2024/02/12 06:28:09;;;;;;;4.80;3.90;;;20.20;41.70;;;;;;5046186;28;20040;-58
2024/02/12 06:30:35;;;;;;;5.95;3.70;;;20.20;41.60;;;;;;5044321;28;20463;-59
2024/02/12 06:33:03;;;;;;;4.45;3.63;;;20.20;41.60;;;;;;5043545;28;20061;-59
2024/02/12 06:35:32;;;;;;;5.00;3.75;;;20.20;41.60;;;;;;5046348;28;20104;-59
2024/02/12 06:38:00;;;;;;;5.10;3.70;;;20.20;41.60;;;;;;5045005;28;20032;-60
2024/02/12 06:40:26;;;;;;;4.03;3.22;;;20.20;41.60;;;;;;5042538;28;20102;-59
2024/02/12 06:42:52;;;;;;;4.78;3.63;;;20.20;41.60;;;;;;5043712;28;20030;-59
2024/02/12 06:45:18;;;;;;;6.38;4.43;;;20.20;41.60;;;;;;5043357;28;20099;-59
2024/02/12 06:47:44;;;;;;;4.55;3.42;;;20.20;41.60;;;;;;5045107;28;20440;-58
2024/02/12 06:50:12;;;;;;;6.00;3.95;;;20.20;41.60;;;;;;5039248;28;20044;-57
2024/02/12 06:52:39;;;;;;;4.85;3.80;;;20.20;41.70;;;;;;5040575;28;20053;-57
2024/02/12 06:55:11;;;;;;;6.43;4.03;;;20.10;41.60;;;;;;5046551;28;20115;-59
2024/02/12 06:57:37;;;;;;;4.72;3.30;;;20.10;41.60;;;;;;5043537;28;20039;-59
2024/02/12 07:00:07;;;;;;;5.82;3.75;;;20.10;41.60;;;;;;5046115;28;20037;-59
2024/02/12 07:02:34;;;;;;;4.65;3.47;;;20.10;41.60;;;;;;5040984;28;20136;-59
2024/02/12 07:05:03;;;;;;;4.85;3.70;;;20.10;41.60;;;;;;5035268;28;20515;-60
2024/02/12 07:07:30;;;;;;;4.57;3.60;;;20.10;41.60;;;;;;5044306;28;20028;-60
2024/02/12 07:10:00;;;;;;;5.18;3.70;;;20.10;41.60;;;;;;5040332;28;20035;-60
2024/02/12 07:12:26;;;;;;;4.68;3.78;;;20.10;41.70;;;;;;5049936;28;20033;-59
2024/02/12 07:14:52;;;;;;;6.60;3.78;;;20.10;41.70;;;;;;5039530;28;20033;-58
2024/02/12 07:17:21;;;;;;;4.72;3.40;;;20.10;41.80;;;;;;5043491;28;20025;-59
2024/02/12 07:19:51;;;;;;;4.88;3.45;;;20.10;41.80;;;;;;5051857;28;20040;-59
2024/02/12 07:22:21;;;;;;;4.35;3.50;;;20.10;41.80;;;;;;5047561;28;20099;-57
2024/02/12 07:24:49;;;;;;;5.47;3.42;;;20.10;41.80;;;;;;5041812;28;20061;-58
2024/02/12 07:27:21;;;;;;;3.90;3.08;;;20.10;41.80;;;;;;5035835;28;20025;-55
2024/02/12 07:29:47;;;;;;;4.90;3.53;;;20.10;41.80;;;;;;5042537;28;20033;-58
2024/02/12 07:32:14;;;;;;;5.05;3.67;;;20.10;41.80;;;;;;5052771;28;20029;-56
2024/02/12 07:34:41;;;;;;;4.68;3.30;;;20.10;41.80;;;;;;5044386;28;20033;-58
2024/02/12 07:37:07;;;;;;;5.18;3.47;;;20.10;41.90;;;;;;5042361;28;20104;-57
2024/02/12 07:39:33;;;;;;;4.50;2.97;;;20.10;41.90;;;;;;5043884;28;20456;-56
2024/02/12 07:41:59;;;;;;;4.45;3.25;;;20.10;41.90;;;;;;5051878;28;20459;-56
2024/02/12 07:44:26;;;;;;;4.38;3.00;;;20.10;42.00;;;;;;5037420;28;20402;-56
2024/02/12 07:46:52;;;;;;;4.75;3.42;;;20.10;42.10;;;;;;5040969;28;20359;-54
2024/02/12 07:49:19;;;;;;;6.50;3.22;;;20.10;42.10;;;;;;5048843;28;20116;-53
2024/02/12 07:51:45;;;;;;;5.20;3.08;;;20.10;42.20;;;;;;5046231;28;20116;-54
2024/02/12 07:54:11;;;;;;;4.70;2.75;;;20.10;42.20;;;;;;5051755;28;20090;-55
2024/02/12 07:56:38;;;;;;;3.72;2.60;;;20.20;42.30;;;;;;5049644;28;20029;-57
2024/02/12 07:59:04;;;;;;;4.22;2.67;;;20.10;42.30;;;;;;5050769;28;20016;-56
2024/02/12 08:01:30;;;;;;;3.50;2.55;;;20.20;42.30;;;;;;5056449;28;20025;-57
2024/02/12 08:03:56;;;;;;;4.10;2.80;;;20.20;42.30;;;;;;5050431;28;20029;-54
2024/02/12 08:06:22;;;;;;;3.25;2.40;;;20.20;42.30;;;;;;5046553;28;20045;-57
2024/02/12 08:08:47;;;;;;;3.25;2.40;;;20.30;42.90;;;;;;5047263;28;20102;-57
2024/02/12 08:11:15;;;;;;;4.03;2.40;;;20.30;42.30;;;;;;5047006;28;20025;-55
2024/02/12 08:13:42;;;;;;;3.85;2.70;;;20.30;42.20;;;;;;5054490;28;20052;-56
2024/02/12 08:16:08;;;;;;;4.88;2.63;;;20.30;42.20;;;;;;5046859;28;20021;-56
2024/02/12 08:18:35;;;;;;;3.00;2.10;;;20.40;42.20;;;;;;5048642;28;20039;-58
2024/02/12 08:21:01;;;;;;;3.10;2.28;;;20.40;42.20;;;;;;5048934;28;20053;-57
2024/02/12 08:23:27;;;;;;;2.92;1.85;;;20.40;42.30;;;;;;5031043;28;20506;-59
2024/02/12 08:25:52;;;;;;;3.42;2.00;;;20.40;42.40;;;;;;5042746;28;20048;-58
2024/02/12 08:28:22;;;;;;;3.00;2.10;;;20.50;42.60;;;;;;5025673;28;20440;-58
2024/02/12 08:30:49;;;;;;;3.05;2.08;;;20.50;42.60;;;;;;5048223;28;20036;-57
2024/02/12 08:33:14;;;;;;;3.60;2.40;;;20.50;42.60;;;;;;5052169;28;20070;-57
2024/02/12 08:35:40;;;;;;;2.78;1.98;;;20.50;42.60;;;;;;5050828;28;20060;-57
2024/02/12 08:38:09;;;;;;;3.33;2.10;;;20.50;42.60;;;;;;5045740;28;20040;-57
2024/02/12 08:40:36;;;;;;;4.35;2.08;;;20.60;42.50;;;;;;5044351;28;20084;-56
2024/02/12 08:43:05;;;;;;;3.13;2.20;;;20.60;42.50;;;;;;5040276;28;20029;-58
2024/02/12 08:45:31;;;;;;;4.03;2.53;;;20.60;42.30;;;;;;5047895;28;20035;-55
2024/02/12 08:47:57;;;;;;;3.40;1.88;;;20.60;42.30;;;;;;5048677;28;20111;-56
2024/02/12 08:50:23;;;;;;;3.20;1.85;;;20.70;42.30;;;;;;5046548;28;20416;-57
2024/02/12 08:52:49;;;;;;;2.67;1.95;;;20.70;42.20;;;;;;5051888;28;20029;-56
2024/02/12 08:55:16;;;;;;;2.92;1.80;;;20.70;42.20;;;;;;5049825;28;20083;-54
2024/02/12 08:57:42;;;;;;;2.60;1.88;;;20.70;42.10;;;;;;5049379;28;20021;-57
2024/02/12 09:00:13;;;;;;;2.60;2.10;;;20.80;42.10;;;;;;5046412;28;20041;-58
2024/02/12 09:02:40;;;;;;;2.90;1.95;;;20.80;42.00;;;;;;5046714;28;20163;-55
2024/02/12 09:05:10;;;;;;;2.13;1.80;;;20.80;41.90;;;;;;5050163;28;20444;-58
2024/02/12 09:07:45;;;;;;;4.13;2.60;;;20.80;41.90;;;;;;5046960;28;20021;-56
2024/02/12 09:10:14;;;;;;;3.05;2.00;;;20.80;41.80;;;;;;5043915;28;20029;-57
2024/02/12 09:12:40;;;;;;;11.02;2.08;;;20.80;41.80;;;;;;5050179;28;20380;-58
2024/02/12 09:15:10;;;;;;;2.78;2.08;;;20.80;41.80;;;;;;5046071;28;20028;-56
2024/02/12 09:17:36;;;;;;;12.20;2.40;;;20.80;41.70;;;;;;5054097;28;20039;-58
2024/02/12 09:20:04;;;;;;;5.82;2.15;;;20.90;41.70;;;;;;5050944;28;20055;-59
2024/02/12 09:22:33;;;;;;;3.17;2.17;;;20.90;41.70;;;;;;5054126;28;20101;-59
2024/02/12 09:25:03;;;;;;;5.68;1.90;;;20.90;41.60;;;;;;5048900;28;20056;-57
2024/02/12 09:27:32;;;;;;;5.00;2.30;;;20.90;41.60;;;;;;5047494;28;20095;-59
2024/02/12 09:29:59;;;;;;;2.90;2.20;;;20.90;41.50;;;;;;5044787;28;20028;-57
2024/02/12 09:32:26;;;;;;;4.60;2.45;;;20.90;41.50;;;;;;5026714;28;20401;-59
2024/02/12 09:34:55;;;;;;;4.05;2.25;;;20.90;41.50;;;;;;5049332;28;20033;-60
2024/02/12 09:37:22;;;;;;;3.53;2.58;;;20.90;41.50;;;;;;5048964;28;20032;-59
2024/02/12 09:39:47;;;;;;;4.38;2.70;;;20.90;41.50;;;;;;5046077;28;20064;-60
2024/02/12 09:42:16;;;;;;;5.75;2.58;;;21.00;41.50;;;;;;5044201;28;20034;-61
2024/02/12 09:44:47;;;;;;;2.67;2.30;;;21.00;41.50;;;;;;5044178;28;20082;-58
2024/02/12 09:47:18;;;;;;;3.72;2.83;;;20.90;41.40;;;;;;5047712;28;20129;-57
2024/02/12 09:49:44;;;;;;;4.05;2.90;;;21.00;41.50;;;;;;5044517;28;20037;-58
2024/02/12 09:52:13;;;;;;;4.85;2.65;;;21.00;41.40;;;;;;5045164;28;20095;-58
2024/02/12 09:54:39;;;;;;;4.85;3.28;;;21.00;41.50;;;;;;5046750;28;20043;-59
2024/02/12 09:57:05;;;;;;;4.13;3.42;;;20.90;41.40;;;;;;5046146;28;20055;-60
2024/02/12 09:59:32;;;;;;;6.95;3.30;;;21.00;41.50;;;;;;5045444;28;20076;-60
2024/02/12 10:01:58;;;;;;;3.65;2.90;;;21.00;41.50;;;;;;5045796;28;20334;-60
2024/02/12 10:04:25;;;;;;;4.78;3.40;;;21.00;42.10;;;;;;5035312;28;20075;-59
2024/02/12 10:06:55;;;;;;;4.25;3.20;;;20.90;41.40;;;;;;5049245;28;20029;-59
2024/02/12 10:09:21;;;;;;;3.72;3.10;;;21.00;41.50;;;;;;5050118;28;20029;-59
2024/02/12 10:11:47;;;;;;;5.03;3.67;;;21.00;41.50;;;;;;5050877;28;20379;-58
2024/02/12 10:14:13;;;;;;;3.58;2.90;;;20.90;41.40;;;;;;5053037;28;20029;-60
2024/02/12 10:16:41;;;;;;;4.53;3.45;;;20.90;41.50;;;;;;5041442;28;20445;-61
2024/02/12 10:19:07;;;;;;;4.45;3.40;;;20.90;41.50;;;;;;5035069;28;20037;-57
2024/02/12 10:21:33;;;;;;;3.90;3.10;;;20.90;41.50;;;;;;5042364;28;20034;-59
2024/02/12 10:24:01;;;;;;;3.70;3.10;;;20.90;41.50;;;;;;5042772;28;20170;-59
2024/02/12 10:26:27;;;;;;;3.97;3.38;;;20.90;41.50;;;;;;5045058;28;20052;-60
2024/02/12 10:28:59;;;;;;;5.43;3.17;;;20.90;41.50;;;;;;5044620;28;20239;-59
2024/02/12 10:31:26;;;;;;;4.15;3.17;;;20.90;41.60;;;;;;5043602;28;20033;-58
2024/02/12 10:33:52;;;;;;;4.68;3.22;;;20.90;41.50;;;;;;5052146;28;20028;-59
2024/02/12 10:36:19;;;;;;;3.00;2.63;;;20.90;41.50;;;;;;5048153;28;20033;-59
2024/02/12 10:38:48;;;;;;;4.13;2.88;;;20.90;41.60;;;;;;5042655;28;20341;-58
2024/02/12 10:41:30;;;;;;;3.63;2.80;;;20.90;41.50;;;;;;5038002;28;20091;-59
2024/02/12 10:43:59;;;;;;;4.38;2.85;;;20.90;41.50;;;;;;5044840;28;20112;-59
2024/02/12 10:46:27;;;;;;;5.15;2.67;;;20.90;41.60;;;;;;5050918;28;20021;-60
2024/02/12 10:48:54;;;;;;;4.68;2.70;;;20.90;41.60;;;;;;5049294;28;20489;-58
2024/02/12 10:51:23;;;;;;;4.40;3.05;;;20.90;41.60;;;;;;5041168;28;20044;-58
2024/02/12 10:53:50;;;;;;;3.58;2.45;;;20.90;41.60;;;;;;5039110;28;20044;-59
2024/02/12 10:56:16;;;;;;;3.55;2.22;;;20.90;41.60;;;;;;5047713;28;20032;-59
2024/02/12 10:58:44;;;;;;;2.72;2.40;;;20.90;41.60;;;;;;5038054;28;20037;-58
2024/02/12 11:01:14;;;;;;;2.42;2.05;;;20.90;41.50;;;;;;5037544;28;20060;-59
2024/02/12 11:03:45;;;;;;;3.33;2.20;;;21.00;41.60;;;;;;5043209;28;20100;-59
2024/02/12 11:06:11;;;;;;;2.53;1.98;;;21.00;41.50;;;;;;5047402;28;20029;-57
2024/02/12 11:08:41;;;;;;;3.40;2.22;;;21.00;41.50;;;;;;5024688;28;20452;-59
2024/02/12 11:11:33;;;;;;;3.17;2.22;;;21.00;41.50;;;;;;5053167;28;20100;-60
2024/02/12 11:14:05;;;;;;;2.67;2.05;;;21.00;41.40;;;;;;5041720;28;20042;-60
2024/02/12 11:16:32;;;;;;;2.90;2.00;;;21.00;41.40;;;;;;5047726;28;20035;-58
2024/02/12 11:19:01;;;;;;;3.67;2.15;;;21.00;41.40;;;;;;5038619;28;20380;-59
2024/02/12 11:21:38;;;;;;;3.10;2.03;;;21.00;41.40;;;;;;5035216;28;20033;-60
2024/02/12 11:24:04;;;;;;;2.67;1.98;;;21.00;41.40;;;;;;5045121;28;20029;-60
2024/02/12 11:26:49;;;;;;;2.83;1.98;;;20.90;41.30;;;;;;5052414;28;20029;-60
2024/02/12 11:29:18;;;;;;;2.45;1.92;;;21.00;41.40;;;;;;5045971;28;20124;-60
2024/02/12 11:31:47;;;;;;;2.70;1.50;;;21.00;41.40;;;;;;5047482;28;20025;-58
2024/02/12 11:34:20;;;;;;;2.28;1.80;;;21.00;41.30;;;;;;5043857;28;20037;-61
2024/02/12 11:36:59;;;;;;;2.17;1.80;;;21.00;41.30;;;;;;5040176;28;20048;-60
2024/02/12 11:39:25;;;;;;;2.38;1.42;;;20.90;41.30;;;;;;5043107;28;20049;-57
2024/02/12 11:42:00;;;;;;;3.00;1.70;;;21.00;41.40;;;;;;5034819;28;20469;-57
2024/02/12 11:44:30;;;;;;;2.00;1.50;;;21.00;41.40;;;;;;5041520;28;20029;-60
2024/02/12 11:47:04;;;;;;;1.48;1.35;;;21.00;41.50;;;;;;5046974;28;20419;-57
2024/02/12 11:49:33;;;;;;;1.83;1.33;;;21.00;41.50;;;;;;5043463;28;20482;-58
2024/02/12 11:52:04;;;;;;;1.67;1.35;;;21.00;41.40;;;;;;5043474;28;20337;-58
2024/02/12 11:54:32;;;;;;;3.65;1.70;;;21.00;41.40;;;;;;5047036;28;20112;-58
2024/02/12 11:56:59;;;;;;;2.22;1.65;;;21.00;41.40;;;;;;5054856;28;20469;-58
2024/02/12 11:59:26;;;;;;;1.55;1.27;;;21.00;41.40;;;;;;5036923;28;20071;-60
2024/02/12 12:01:53;;;;;;;2.20;1.30;;;21.00;41.30;;;;;;5043459;28;20040;-59
2024/02/12 12:04:20;;;;;;;1.92;1.50;;;21.00;41.30;;;;;;5043731;28;20079;-59
2024/02/12 12:06:47;;;;;;;2.22;1.13;;;21.00;41.20;;;;;;5052970;28;20041;-59
2024/02/12 12:09:19;;;;;;;1.65;1.20;;;21.00;41.10;;;;;;5052222;28;20052;-59
2024/02/12 12:11:53;;;;;;;2.13;1.30;;;21.00;41.10;;;;;;5050321;28;20075;-59
2024/02/12 12:14:20;;;;;;;1.67;1.08;;;21.00;41.10;;;;;;5053498;28;20039;-59
2024/02/12 12:16:46;;;;;;;1.65;0.95;;;21.00;41.20;;;;;;5051276;28;20083;-59
2024/02/12 12:19:12;;;;;;;2.28;1.10;;;21.00;41.10;;;;;;5051968;28;20036;-59
2024/02/12 12:21:39;;;;;;;1.55;1.00;;;21.00;41.10;;;;;;5052978;28;20033;-59
2024/02/12 12:24:05;;;;;;;2.38;1.08;;;21.00;41.00;;;;;;5053071;28;20025;-57
2024/02/12 12:26:31;;;;;;;1.48;1.00;;;21.00;41.00;;;;;;5051651;28;20037;-58
2024/02/12 12:28:57;;;;;;;1.88;1.00;;;21.00;40.90;;;;;;5053065;28;20033;-58
2024/02/12 12:31:23;;;;;;;1.33;0.90;;;21.00;40.90;;;;;;5048949;28;20075;-58
2024/02/12 12:33:51;;;;;;;2.30;1.15;;;21.00;40.90;;;;;;5052225;28;20029;-59
2024/02/12 12:36:18;;;;;;;7.72;1.33;;;21.00;40.80;;;;;;5034639;28;21609;-59
2024/02/12 12:38:43;;;;;;;2.55;1.05;;;21.00;40.80;;;;;;5049322;28;20036;-59
2024/02/12 12:41:10;;;;;;;2.60;0.98;;;20.90;40.70;;;;;;5049959;28;20107;-58
2024/02/12 12:43:36;;;;;;;1.48;0.88;;;20.90;40.70;;;;;;5052687;28;20037;-59
2024/02/12 12:46:06;;;;;;;2.25;0.90;;;20.90;40.70;;;;;;5055895;28;20735;-59
2024/02/12 12:48:32;;;;;;;1.10;0.70;;;20.90;40.70;;;;;;5054481;28;20095;-59
2024/02/12 12:51:05;;;;;;;1.98;0.80;;;20.90;40.70;;;;;;5053733;28;20064;-58
2024/02/12 12:53:32;;;;;;;1.10;0.80;;;20.90;40.60;;;;;;5051934;28;20053;-65
2024/02/12 12:55:58;;;;;;;2.00;1.00;;;20.90;40.60;;;;;;5055303;28;20052;-58
2024/02/12 12:58:23;;;;;;;1.38;0.80;;;20.90;40.70;;;;;;5054346;28;20433;-56
2024/02/12 13:00:49;;;;;;;1.67;0.80;;;20.90;40.80;;;;;;5051696;28;20082;-59
2024/02/12 13:03:17;;;;;;;2.10;1.08;;;20.90;40.90;;;;;;5050277;28;20025;-60
2024/02/12 13:05:42;;;;;;;1.65;0.77;;;20.90;41.00;;;;;;5048592;28;20037;-62